createdAt,value
2023-01-26T00:02:04.211Z,13.07
2023-01-26T00:04:31.495Z,15.25
2023-01-26T00:06:58.742Z,13.23
2023-01-26T00:09:26.301Z,12.88
2023-01-26T00:11:53.532Z,15.40
2023-01-26T00:14:20.868Z,13.32
2023-01-26T00:16:48.276Z,13.77
2023-01-26T00:19:15.595Z,15.38
2023-01-26T00:21:42.875Z,14.65
2023-01-26T00:26:51.208Z,14.07
2023-01-26T00:29:19.189Z,13.45
2023-01-26T00:31:46.596Z,13.07
2023-01-26T00:34:14.995Z,13.07
2023-01-26T00:36:42.486Z,13.52
2023-01-26T00:39:09.826Z,11.80
2023-01-26T00:41:55.582Z,11.52
2023-01-26T00:44:22.873Z,11.13
2023-01-26T00:46:50.483Z,11.27
2023-01-26T00:49:17.890Z,11.75
2023-01-26T00:51:45.279Z,10.60
2023-01-26T00:54:12.748Z,10.90
2023-01-26T00:56:40.178Z,12.80
2023-01-26T00:59:07.956Z,11.93
2023-01-26T01:01:35.369Z,10.63
2023-01-26T01:04:02.833Z,11.35
2023-01-26T01:06:30.190Z,10.70
2023-01-26T01:08:57.605Z,10.02
2023-01-26T01:11:25.080Z,10.60
2023-01-26T01:13:52.476Z,10.82
2023-01-26T01:16:20.113Z,10.38
2023-01-26T01:18:47.557Z,11.50
2023-01-26T01:21:16.867Z,9.93
2023-01-26T01:23:44.566Z,10.05
2023-01-26T01:26:12.930Z,9.90
2023-01-26T01:28:41.038Z,10.07
2023-01-26T01:31:11.484Z,9.90
2023-01-26T01:33:40.016Z,10.35
2023-01-26T01:36:10.798Z,10.05
2023-01-26T01:38:38.469Z,10.18
2023-01-26T01:41:06.432Z,8.55
2023-01-26T01:43:33.964Z,9.32
2023-01-26T01:46:03.808Z,8.68
2023-01-26T01:48:45.686Z,8.45
2023-01-26T01:51:19.813Z,8.65
2023-01-26T01:53:50.806Z,9.40
2023-01-26T01:56:23.555Z,9.57
2023-01-26T01:58:54.619Z,9.35
2023-01-26T02:01:22.336Z,9.88
2023-01-26T02:03:52.377Z,10.45
2023-01-26T02:06:22.770Z,10.63
2023-01-26T02:08:53.352Z,8.38
2023-01-26T02:11:36.704Z,8.32
2023-01-26T02:14:08.963Z,8.77
2023-01-26T02:16:40.066Z,8.95
2023-01-26T02:19:15.403Z,8.55
2023-01-26T02:21:45.003Z,9.15
2023-01-26T02:24:24.970Z,9.68
2023-01-26T02:26:54.969Z,11.77
2023-01-26T02:29:23.434Z,10.95
2023-01-26T02:31:53.700Z,10.48
2023-01-26T02:34:22.030Z,10.93
2023-01-26T02:37:00.185Z,10.60
2023-01-26T02:39:49.308Z,9.93
2023-01-26T02:42:35.809Z,11.43
2023-01-26T02:45:03.380Z,11.65
2023-01-26T02:47:30.863Z,12.20
2023-01-26T02:50:00.500Z,11.52
2023-01-26T02:52:31.897Z,11.68
2023-01-26T02:55:25.211Z,12.55
2023-01-26T02:57:56.233Z,12.65
2023-01-26T03:00:28.859Z,13.60
2023-01-26T03:02:59.420Z,11.73
2023-01-26T03:05:28.410Z,12.30
2023-01-26T03:07:56.370Z,13.63
2023-01-26T03:10:27.641Z,12.88
2023-01-26T03:12:55.148Z,13.57
2023-01-26T03:15:40.938Z,13.23
2023-01-26T03:18:29.287Z,12.88
2023-01-26T03:21:16.754Z,13.52
2023-01-26T03:24:02.844Z,14.82
2023-01-26T03:26:48.718Z,13.20
2023-01-26T03:29:16.629Z,14.10
2023-01-26T03:31:44.623Z,12.75
2023-01-26T03:34:12.426Z,11.43
2023-01-26T03:36:40.746Z,11.82
2023-01-26T03:39:33.081Z,12.32
2023-01-26T03:42:19.897Z,12.23
2023-01-26T03:45:06.179Z,10.55
2023-01-26T03:47:53.832Z,11.10
2023-01-26T03:50:39.967Z,12.05
2023-01-26T03:53:36.400Z,11.48
2023-01-26T03:56:33.936Z,12.27
2023-01-26T03:59:15.554Z,13.45
2023-01-26T04:02:05.222Z,13.93
2023-01-26T04:04:52.239Z,13.98
2023-01-26T04:07:42.255Z,12.70
2023-01-26T04:10:10.624Z,12.98
2023-01-26T04:12:38.099Z,13.43
2023-01-26T04:15:33.656Z,12.20
2023-01-26T04:18:25.912Z,13.20
2023-01-26T04:21:13.490Z,13.35
2023-01-26T04:23:43.327Z,12.90
2023-01-26T04:26:10.616Z,13.32
2023-01-26T04:28:38.616Z,13.43
2023-01-26T04:31:06.550Z,14.82
2023-01-26T04:33:36.463Z,13.02
2023-01-26T04:36:08.423Z,12.50
2023-01-26T04:38:39.652Z,12.02
2023-01-26T04:41:07.081Z,12.45
2023-01-26T18:08:49.302Z,16.25
2023-01-26T18:11:17.660Z,18.23
2023-01-26T18:13:45.259Z,17.25
2023-01-26T18:16:18.522Z,17.65
2023-01-26T18:18:46.355Z,15.48
2023-01-26T18:21:34.993Z,16.92
2023-01-26T18:24:03.990Z,16.42
2023-01-26T18:26:34.694Z,15.90
2023-01-26T18:29:03.363Z,14.25
2023-01-26T18:31:36.561Z,13.93
2023-01-26T18:34:04.691Z,11.88
2023-01-26T18:36:32.432Z,11.55
2023-01-26T18:39:05.411Z,11.40
2023-01-26T18:41:33.519Z,11.43
2023-01-26T18:44:03.040Z,11.30
2023-01-26T18:46:33.651Z,13.38
2023-01-26T18:49:01.190Z,11.77
2023-01-26T18:51:31.542Z,12.25
2023-01-26T18:53:59.389Z,12.38
2023-01-26T18:56:26.979Z,10.63
2023-01-26T18:58:54.561Z,10.30
2023-01-26T19:01:22.725Z,10.70
2023-01-26T19:03:55.279Z,10.50
2023-01-26T19:06:24.560Z,10.07
2023-01-26T19:08:58.891Z,9.90
2023-01-26T19:11:28.845Z,9.15
2023-01-26T19:13:56.200Z,10.15
2023-01-26T19:16:23.710Z,9.48
2023-01-26T19:18:52.086Z,8.82
2023-01-26T19:21:24.689Z,8.63
2023-01-26T19:23:54.660Z,9.43
2023-01-26T19:26:24.844Z,9.50
2023-01-26T19:28:54.528Z,9.07
2023-01-26T19:31:23.077Z,8.73
2023-01-26T19:33:53.159Z,9.55
2023-01-26T19:36:20.872Z,9.10
2023-01-26T19:38:48.420Z,9.50
2023-01-26T19:41:16.134Z,10.10
2023-01-26T19:43:44.578Z,10.50
2023-01-26T19:46:15.855Z,9.10
2023-01-26T19:48:43.729Z,9.55
2023-01-26T19:51:20.634Z,9.73
2023-01-26T19:53:50.219Z,9.63
2023-01-26T19:56:21.289Z,9.32
2023-01-26T19:58:53.819Z,9.38
2023-01-26T20:01:22.417Z,9.77
2023-01-26T20:03:58.946Z,9.70
2023-01-26T20:06:29.423Z,11.18
2023-01-26T20:08:57.443Z,10.75
2023-01-26T20:11:25.300Z,10.52
2023-01-26T20:14:01.158Z,10.30
2023-01-26T20:16:29.591Z,10.13
2023-01-26T20:18:57.646Z,11.13
2023-01-26T20:21:25.775Z,13.02
2023-01-26T20:23:55.618Z,11.77
2023-01-26T20:26:27.013Z,10.52
2023-01-26T20:28:57.667Z,12.15
2023-01-26T20:31:26.796Z,11.40
2023-01-26T20:33:54.516Z,11.82
2023-01-26T20:36:24.530Z,12.45
2023-01-26T20:38:52.299Z,11.60
2023-01-26T20:41:22.869Z,10.18
2023-01-26T20:43:59.094Z,11.55
2023-01-26T20:46:30.857Z,10.95
2023-01-26T20:48:58.095Z,11.98
2023-01-26T20:51:29.572Z,12.05
2023-01-26T20:53:57.836Z,11.52
2023-01-26T20:56:25.341Z,12.13
2023-01-26T20:58:54.564Z,11.90
2023-01-26T21:01:23.119Z,11.80
2023-01-26T21:03:50.798Z,12.80
2023-01-26T21:06:20.926Z,12.02
2023-01-26T21:08:50.121Z,11.82
2023-01-26T21:11:17.991Z,12.02
2023-01-26T21:13:45.557Z,12.40
2023-01-26T21:16:15.657Z,12.52
2023-01-26T21:18:43.982Z,10.63
2023-01-26T21:21:13.741Z,12.18
2023-01-26T21:23:41.621Z,12.13
2023-01-26T21:26:14.740Z,11.43
2023-01-26T21:28:42.281Z,12.27
2023-01-26T21:31:13.869Z,12.25
2023-01-26T21:33:44.957Z,12.07
2023-01-26T21:36:14.891Z,12.32
2023-01-26T21:38:43.908Z,11.85
2023-01-26T21:41:34.260Z,12.57
2023-01-26T21:44:04.344Z,11.90
2023-01-26T21:46:31.540Z,11.82
2023-01-26T21:48:59.154Z,11.77
2023-01-26T21:51:46.361Z,13.15
2023-01-26T21:54:14.906Z,13.00
2023-01-26T21:56:42.241Z,12.35
2023-01-26T21:59:14.618Z,11.90
2023-01-26T22:01:47.179Z,10.95
2023-01-26T22:04:18.848Z,12.13
2023-01-26T22:06:46.194Z,11.00
2023-01-26T22:09:16.330Z,11.40
2023-01-26T22:11:44.459Z,11.82
2023-01-26T22:14:26.125Z,11.80
2023-01-26T22:16:53.809Z,15.02
2023-01-26T22:19:21.041Z,14.15
2023-01-26T22:21:48.409Z,15.45
2023-01-26T22:24:16.042Z,13.73
2023-01-26T22:26:43.535Z,12.23
2023-01-26T22:29:12.827Z,12.48
2023-01-26T22:31:40.186Z,12.15
2023-01-26T22:34:07.732Z,11.82
2023-01-26T22:36:35.077Z,11.35
2023-01-26T22:39:02.302Z,12.25
2023-01-26T22:41:30.719Z,10.65
2023-01-26T22:43:59.518Z,9.90
2023-01-26T22:46:28.920Z,10.65
2023-01-26T22:48:57.474Z,11.43
2023-01-26T22:51:28.966Z,11.55
2023-01-26T22:53:58.259Z,12.23
2023-01-26T22:56:26.770Z,13.48
2023-01-26T22:58:59.360Z,14.15
2023-01-26T23:01:32.535Z,14.23
2023-01-26T23:04:01.559Z,15.75
2023-01-26T23:06:29.510Z,13.85
2023-01-26T23:08:58.501Z,14.88
2023-01-26T23:11:28.033Z,15.98
2023-01-26T23:13:56.600Z,14.30
2023-01-26T23:16:24.628Z,15.38
2023-01-26T23:18:53.909Z,16.30
2023-01-26T23:21:21.752Z,15.57
2023-01-26T23:23:49.199Z,14.90
2023-01-26T23:26:16.613Z,14.32
2023-01-26T23:28:44.906Z,15.40
2023-01-26T23:31:14.018Z,14.32
2023-01-26T23:33:41.877Z,14.57
2023-01-26T23:36:11.487Z,14.57
2023-01-26T23:38:39.031Z,15.25
2023-01-26T23:41:08.567Z,15.10
2023-01-26T23:43:35.901Z,14.02
2023-01-26T23:46:04.923Z,14.48
2023-01-26T23:48:32.339Z,15.68
2023-01-26T23:51:01.811Z,15.05
2023-01-26T23:53:30.765Z,16.13
2023-01-26T23:56:00.732Z,14.32
2023-01-26T23:58:27.974Z,15.32
